createdAt,value
2022-09-24T00:01:34.058Z,7.68
2022-09-24T00:04:06.388Z,7.32
2022-09-24T00:06:58.947Z,9.48
2022-09-24T00:09:25.299Z,5.38
2022-09-24T00:11:53.288Z,4.82
2022-09-24T00:14:20.118Z,6.20
2022-09-24T00:16:46.525Z,6.45
2022-09-24T00:19:14.032Z,8.70
2022-09-24T00:21:41.698Z,9.50
2022-09-24T00:24:36.935Z,9.90
2022-09-24T00:27:05.112Z,10.60
2022-09-24T00:29:36.168Z,4.53
2022-09-24T00:32:04.257Z,4.45
2022-09-24T00:34:31.108Z,4.57
2022-09-24T00:36:57.570Z,5.88
2022-09-24T00:39:23.921Z,7.13
2022-09-24T00:41:50.254Z,4.82
2022-09-24T00:44:35.417Z,4.03
2022-09-24T00:47:01.858Z,8.95
2022-09-24T00:49:28.359Z,4.18
2022-09-24T00:51:54.705Z,3.92
2022-09-24T00:54:24.882Z,3.63
2022-09-24T00:56:53.127Z,4.38
2022-09-24T00:59:23.825Z,3.97
2022-09-24T01:01:52.718Z,4.75
2022-09-24T01:04:22.857Z,4.68
2022-09-24T01:06:50.606Z,8.00
2022-09-24T01:09:19.849Z,7.00
2022-09-24T01:12:06.652Z,5.32
2022-09-24T01:14:47.127Z,5.80
2022-09-24T01:17:20.658Z,3.92
2022-09-24T01:20:13.603Z,4.25
2022-09-24T01:22:39.856Z,5.35
2022-09-24T01:25:19.271Z,4.97
2022-09-24T01:28:21.709Z,9.02
2022-09-24T01:30:54.808Z,4.10
2022-09-24T01:33:25.658Z,7.00
2022-09-24T01:35:56.395Z,8.55
2022-09-24T01:38:34.682Z,4.50
2022-09-24T01:41:03.772Z,7.15
2022-09-24T01:43:32.409Z,7.70
2022-09-24T01:46:02.214Z,4.95
2022-09-24T01:48:30.244Z,5.72
2022-09-24T01:51:14.433Z,6.28
2022-09-24T01:53:53.823Z,3.47
2022-09-24T01:57:12.875Z,3.60
2022-09-24T01:59:55.779Z,5.70
2022-09-24T02:02:35.256Z,8.27
2022-09-24T02:05:07.814Z,12.80
2022-09-24T02:08:02.860Z,6.80
2022-09-24T02:10:32.469Z,7.18
2022-09-24T02:13:05.348Z,6.90
2022-09-24T02:15:34.767Z,8.00
2022-09-24T02:18:06.881Z,3.78
2022-09-24T02:20:35.502Z,7.13
2022-09-24T02:23:04.541Z,4.38
2022-09-24T02:25:39.032Z,6.68
2022-09-24T02:28:05.537Z,3.90
2022-09-24T02:30:40.986Z,5.45
2022-09-24T02:33:30.804Z,4.43
2022-09-24T02:35:57.553Z,8.80
2022-09-24T02:38:24.035Z,5.35
2022-09-24T02:40:51.274Z,5.18
2022-09-24T02:43:17.737Z,5.25
2022-09-24T02:45:44.068Z,4.95
2022-09-24T02:48:11.026Z,9.70
2022-09-24T02:50:37.488Z,8.52
2022-09-24T02:53:03.917Z,8.77
2022-09-24T02:55:31.026Z,4.50
2022-09-24T02:57:57.518Z,4.97
2022-09-24T03:00:23.874Z,6.40
2022-09-24T03:02:51.153Z,12.80
2022-09-24T03:05:18.188Z,7.07
2022-09-24T03:07:45.185Z,7.25
2022-09-24T03:10:11.761Z,5.75
2022-09-24T03:12:38.172Z,5.28
2022-09-24T03:15:05.325Z,7.00
2022-09-24T03:17:31.699Z,5.43
2022-09-24T03:19:58.042Z,5.25
2022-09-24T03:22:24.394Z,8.13
2022-09-24T03:24:51.069Z,4.47
2022-09-24T03:27:17.402Z,7.63
2022-09-24T03:30:02.373Z,4.97
2022-09-24T03:32:29.895Z,6.10
2022-09-24T03:34:56.261Z,5.85
2022-09-24T03:37:22.587Z,7.75
2022-09-24T03:39:48.940Z,6.07
2022-09-24T03:42:15.452Z,4.85
2022-09-24T03:44:41.797Z,3.85
2022-09-24T03:47:08.166Z,4.07
2022-09-24T03:49:34.544Z,4.43
2022-09-24T03:52:00.936Z,6.07
2022-09-24T03:54:27.318Z,10.27
2022-09-24T03:56:53.672Z,4.10
2022-09-24T03:59:20.032Z,6.30
2022-09-24T04:01:46.398Z,4.80
2022-09-24T04:04:15.534Z,3.70
2022-09-24T04:06:41.874Z,4.55
2022-09-24T04:09:08.362Z,13.73
2022-09-24T04:11:35.240Z,6.10
2022-09-24T04:14:02.069Z,6.57
2022-09-24T04:16:28.718Z,6.43
2022-09-24T04:18:55.549Z,8.23
2022-09-24T04:21:21.962Z,6.85
2022-09-24T04:23:48.342Z,5.28
2022-09-24T04:26:15.130Z,5.82
2022-09-24T04:28:41.550Z,11.57
2022-09-24T04:31:08.051Z,4.25
2022-09-24T04:33:34.513Z,5.45
2022-09-24T04:36:01.044Z,5.43
2022-09-24T04:38:27.396Z,3.85
2022-09-24T04:40:53.820Z,6.97
2022-09-24T04:43:20.307Z,4.28
2022-09-24T04:45:46.959Z,6.15
2022-09-24T04:48:13.609Z,5.95
2022-09-24T04:50:45.493Z,8.27
2022-09-24T04:53:12.799Z,3.97
2022-09-24T04:55:39.639Z,4.28
2022-09-24T04:58:06.022Z,4.72
2022-09-24T05:00:33.337Z,5.68
2022-09-24T05:03:03.639Z,4.30
2022-09-24T05:05:32.186Z,8.32
2022-09-24T05:07:58.793Z,9.93
2022-09-24T05:10:26.406Z,5.93
2022-09-24T05:12:52.865Z,6.22
2022-09-24T05:15:19.932Z,5.72
2022-09-24T05:17:47.597Z,8.00
2022-09-24T05:20:16.773Z,8.60
2022-09-24T05:22:44.913Z,6.00
2022-09-24T05:25:13.198Z,5.82
2022-09-24T05:27:51.555Z,6.15
2022-09-24T05:30:19.346Z,6.00
2022-09-24T05:32:47.171Z,5.32
2022-09-24T05:35:13.730Z,4.60
2022-09-24T05:37:40.492Z,5.75
2022-09-24T05:40:26.579Z,8.27
2022-09-24T05:42:59.716Z,3.42
2022-09-24T05:45:26.063Z,6.55
2022-09-24T05:47:52.745Z,7.93
2022-09-24T05:50:19.200Z,8.18
2022-09-24T05:52:45.578Z,5.63
2022-09-24T05:55:12.004Z,7.80
2022-09-24T05:57:38.576Z,6.93
2022-09-24T06:00:06.926Z,8.07
2022-09-24T06:02:33.535Z,7.75
2022-09-24T06:04:59.880Z,5.13
2022-09-24T06:07:26.238Z,11.63
2022-09-24T06:09:52.694Z,11.13
2022-09-24T06:12:19.579Z,13.23
2022-09-24T06:14:45.916Z,11.35
2022-09-24T06:17:12.505Z,15.48
2022-09-24T06:19:39.298Z,18.88
2022-09-24T06:22:05.659Z,17.33
2022-09-24T06:24:31.976Z,15.43
2022-09-24T06:26:58.694Z,15.77
2022-09-24T06:29:25.130Z,16.25
2022-09-24T06:31:53.797Z,14.65
2022-09-24T06:34:20.239Z,18.90
2022-09-24T06:36:46.686Z,15.68
2022-09-24T06:39:13.040Z,12.05
2022-09-24T06:41:39.453Z,11.38
2022-09-24T06:44:05.798Z,11.85
2022-09-24T06:46:32.227Z,11.43
2022-09-24T06:48:58.639Z,15.95
2022-09-24T06:51:25.019Z,17.40
2022-09-24T06:53:52.650Z,15.80
2022-09-24T06:56:19.314Z,14.15
2022-09-24T06:58:46.515Z,14.10
2022-09-24T07:01:13.039Z,14.75
2022-09-24T07:03:40.185Z,11.30
2022-09-24T07:06:07.085Z,12.90
2022-09-24T07:08:33.671Z,10.77
2022-09-24T07:11:00.792Z,12.98
2022-09-24T07:13:27.262Z,16.52
2022-09-24T07:15:53.728Z,11.75
2022-09-24T07:18:20.524Z,10.45
2022-09-24T07:20:54.259Z,11.18
2022-09-24T07:23:21.633Z,11.75
2022-09-24T07:25:48.918Z,11.65
2022-09-24T07:28:19.587Z,8.38
2022-09-24T07:30:45.965Z,9.98
2022-09-24T07:33:12.330Z,12.15
2022-09-24T07:35:39.302Z,7.82
2022-09-24T07:38:14.215Z,9.45
2022-09-24T07:40:40.993Z,7.88
2022-09-24T07:43:12.280Z,8.80
2022-09-24T07:45:39.081Z,7.68
2022-09-24T07:48:05.827Z,7.30
2022-09-24T07:50:35.279Z,5.70
2022-09-24T07:53:01.677Z,11.88
2022-09-24T07:55:28.050Z,6.82
2022-09-24T07:57:55.661Z,26.00
2022-09-24T08:00:24.258Z,6.05
2022-09-24T08:02:52.068Z,5.10
2022-09-24T08:05:18.517Z,8.52
2022-09-24T08:07:55.844Z,5.80
2022-09-24T08:10:23.223Z,4.28
2022-09-24T08:12:49.989Z,9.23
2022-09-24T08:15:16.639Z,11.57
2022-09-24T08:17:43.032Z,8.27
2022-09-24T08:20:11.501Z,7.88
2022-09-24T08:22:38.165Z,5.80
2022-09-24T08:25:06.081Z,6.35
2022-09-24T08:27:33.004Z,8.25
2022-09-24T08:30:00.632Z,7.78
2022-09-24T08:32:29.308Z,9.07
2022-09-24T08:34:55.683Z,6.25
2022-09-24T08:37:22.298Z,4.72
2022-09-24T08:39:48.657Z,10.18
2022-09-24T08:42:36.576Z,5.03
2022-09-24T08:45:23.681Z,8.68
2022-09-24T08:48:04.149Z,8.68
2022-09-24T08:50:34.928Z,4.63
2022-09-24T08:53:31.567Z,11.15
2022-09-24T08:56:01.518Z,6.32
2022-09-24T08:58:46.487Z,4.93
2022-09-24T09:01:17.758Z,8.32
2022-09-24T09:04:11.965Z,7.25
2022-09-24T09:07:04.713Z,4.65
2022-09-24T09:09:41.353Z,6.45
2022-09-24T09:12:15.285Z,6.63
2022-09-24T09:14:49.999Z,7.82
2022-09-24T09:17:42.786Z,6.97
2022-09-24T09:20:52.541Z,7.17
2022-09-24T09:23:22.038Z,10.80
2022-09-24T09:25:58.046Z,5.78
2022-09-24T09:28:26.669Z,15.85
2022-09-24T09:31:19.143Z,9.95
2022-09-24T09:33:48.440Z,6.18
2022-09-24T09:36:33.830Z,7.57
2022-09-24T09:39:18.398Z,5.68
2022-09-24T09:41:55.356Z,3.78
2022-09-24T09:44:30.634Z,7.90
2022-09-24T09:47:12.926Z,17.98
2022-09-24T09:49:40.295Z,6.95
2022-09-24T09:52:20.950Z,3.75
2022-09-24T09:54:48.565Z,6.50
2022-09-24T09:57:20.669Z,2.92
2022-09-24T09:59:52.481Z,8.50
2022-09-24T10:02:31.472Z,10.23
2022-09-24T10:05:01.233Z,4.90
2022-09-24T10:07:28.401Z,8.82
2022-09-24T10:10:18.429Z,4.07
2022-09-24T10:12:44.825Z,7.13
2022-09-24T10:15:14.147Z,6.75
2022-09-24T10:17:41.635Z,6.15
2022-09-24T10:20:17.035Z,11.75
2022-09-24T10:23:00.088Z,3.85
2022-09-24T10:25:29.834Z,3.90
2022-09-24T10:28:20.029Z,5.10
2022-09-24T10:31:03.318Z,6.97
2022-09-24T10:33:57.345Z,4.43
2022-09-24T10:36:26.631Z,5.18
2022-09-24T10:39:08.228Z,4.55
2022-09-24T10:41:35.903Z,4.22
2022-09-24T10:44:11.523Z,5.65
2022-09-24T10:46:58.727Z,7.38
2022-09-24T10:50:02.127Z,6.00
2022-09-24T10:52:52.012Z,3.50
2022-09-24T10:55:41.474Z,3.63
2022-09-24T10:58:53.154Z,8.60
2022-09-24T11:01:53.738Z,6.40
2022-09-24T11:04:39.786Z,5.78
2022-09-24T11:07:18.186Z,3.63
2022-09-24T11:09:56.660Z,3.50
2022-09-24T11:12:47.554Z,5.55
2022-09-24T11:15:32.396Z,5.13
2022-09-24T11:18:26.555Z,3.85
2022-09-24T11:21:26.099Z,5.68
2022-09-24T11:24:03.630Z,5.80
2022-09-24T11:26:57.547Z,5.50
2022-09-24T11:29:34.725Z,5.80
2022-09-24T11:32:24.704Z,5.65
2022-09-24T11:35:06.286Z,3.85
2022-09-24T11:37:50.511Z,2.53
2022-09-24T11:40:36.505Z,3.00
2022-09-24T11:43:15.647Z,4.65
2022-09-24T11:45:51.311Z,4.10
2022-09-24T11:48:40.410Z,6.82
2022-09-24T11:51:26.334Z,7.53
2022-09-24T11:54:24.911Z,3.03
2022-09-24T11:57:01.904Z,9.70
2022-09-24T11:59:42.945Z,5.75
2022-09-24T12:02:47.005Z,13.95
2022-09-24T12:05:37.777Z,4.53
2022-09-24T12:08:13.689Z,3.90
2022-09-24T12:10:49.930Z,8.90
2022-09-24T12:13:41.144Z,5.43
2022-09-24T12:16:16.879Z,7.35
2022-09-24T12:18:58.759Z,6.47
2022-09-24T12:21:33.915Z,4.93
2022-09-24T12:24:08.461Z,4.63
2022-09-24T12:26:38.061Z,3.55
2022-09-24T12:29:58.482Z,6.55
2022-09-24T12:32:55.868Z,3.17
2022-09-24T12:35:26.759Z,4.60
2022-09-24T12:38:12.171Z,5.18
2022-09-24T12:41:09.534Z,5.15
2022-09-24T12:43:59.891Z,4.18
2022-09-24T12:46:38.347Z,2.92
2022-09-24T12:49:10.953Z,1.80
2022-09-24T12:51:39.351Z,5.40
2022-09-24T12:54:15.676Z,5.00
2022-09-24T12:56:42.163Z,2.22
2022-09-24T12:59:24.800Z,3.83
2022-09-24T13:01:51.291Z,5.53
2022-09-24T13:04:17.826Z,2.22
2022-09-24T13:06:48.092Z,4.38
2022-09-24T13:09:38.170Z,4.25
2022-09-24T13:12:14.450Z,6.95
2022-09-24T13:14:49.388Z,2.00
2022-09-24T13:17:16.994Z,3.42
2022-09-24T13:19:47.059Z,3.72
2022-09-24T13:22:23.143Z,4.15
2022-09-24T13:24:52.411Z,3.70
2022-09-24T13:27:37.769Z,3.03
2022-09-24T13:30:26.246Z,7.68
2022-09-24T13:33:23.421Z,5.30
2022-09-24T13:36:02.624Z,5.80
2022-09-24T13:38:34.312Z,5.38
2022-09-24T13:41:12.600Z,5.05
2022-09-24T13:43:45.225Z,4.43
2022-09-24T13:46:16.849Z,4.70
2022-09-24T13:48:53.587Z,14.70
2022-09-24T13:51:26.441Z,4.18
2022-09-24T13:54:02.058Z,5.68
2022-09-24T13:56:28.763Z,4.82
2022-09-24T13:59:06.169Z,6.25
2022-09-24T14:01:39.169Z,4.55
2022-09-24T14:04:25.969Z,5.40
2022-09-24T14:06:58.210Z,5.38
2022-09-24T14:09:34.614Z,3.33
2022-09-24T14:12:15.883Z,9.65
2022-09-24T14:14:49.904Z,5.35
2022-09-24T14:17:16.292Z,4.40
2022-09-24T14:19:42.708Z,3.05
2022-09-24T14:22:23.431Z,3.03
2022-09-24T14:25:07.907Z,9.02
2022-09-24T14:27:41.919Z,5.00
2022-09-24T14:30:18.565Z,3.40
2022-09-24T14:32:45.149Z,5.32
2022-09-24T14:35:27.763Z,5.55
2022-09-24T14:38:02.006Z,4.85
2022-09-24T14:40:28.837Z,6.10
2022-09-24T14:42:59.862Z,4.10
2022-09-24T14:45:31.153Z,5.38
2022-09-24T14:48:05.240Z,4.20
2022-09-24T14:50:40.518Z,2.55
2022-09-24T14:53:27.056Z,2.67
2022-09-24T14:55:53.839Z,3.35
2022-09-24T14:58:29.184Z,5.55
2022-09-24T15:00:58.963Z,4.18
2022-09-24T15:03:48.156Z,3.40
2022-09-24T15:06:27.492Z,3.22
2022-09-24T15:09:15.791Z,4.40
2022-09-24T15:11:43.748Z,33.75
2022-09-24T15:14:24.992Z,37.78
2022-09-24T15:16:52.775Z,19.30
2022-09-24T15:19:21.250Z,3.47
2022-09-24T15:21:49.684Z,10.13
2022-09-24T15:24:17.441Z,8.55
2022-09-24T15:26:46.867Z,5.32
2022-09-24T15:29:20.969Z,6.18
2022-09-24T15:31:47.528Z,4.47
2022-09-24T15:34:17.814Z,9.05
2022-09-24T15:36:47.910Z,6.72
2022-09-24T15:39:16.055Z,4.80
2022-09-24T15:41:42.407Z,7.22
2022-09-24T15:44:23.016Z,7.05
2022-09-24T15:46:53.641Z,5.40
2022-09-24T15:49:22.199Z,6.35
2022-09-24T15:52:05.751Z,6.40
2022-09-24T15:54:32.350Z,5.03
2022-09-24T15:57:00.650Z,5.95
2022-09-24T15:59:27.982Z,5.20
2022-09-24T16:01:57.780Z,7.05
2022-09-24T16:04:24.185Z,4.78
2022-09-24T16:06:50.965Z,5.13
2022-09-24T16:09:17.324Z,5.75
2022-09-24T16:11:44.021Z,5.40
2022-09-24T16:14:10.992Z,4.78
2022-09-24T16:16:40.436Z,7.03
2022-09-24T16:19:09.628Z,6.05
2022-09-24T16:21:36.187Z,5.25
2022-09-24T16:24:03.206Z,8.80
2022-09-24T16:26:29.735Z,11.20
2022-09-24T16:28:56.775Z,6.15
2022-09-24T16:31:23.796Z,6.22
2022-09-24T16:33:50.268Z,8.57
2022-09-24T16:36:16.827Z,9.52
2022-09-24T16:38:43.287Z,7.43
2022-09-24T16:41:10.763Z,9.40
2022-09-24T16:43:37.492Z,8.60
2022-09-24T16:46:06.701Z,10.30
2022-09-24T16:48:33.605Z,12.80
2022-09-24T16:51:07.594Z,12.75
2022-09-24T16:53:34.804Z,11.00
2022-09-24T16:56:15.093Z,11.20
2022-09-24T16:58:42.660Z,14.68
2022-09-24T17:01:11.521Z,10.95
2022-09-24T17:03:38.562Z,13.73
2022-09-24T17:06:05.593Z,12.80
2022-09-24T17:09:12.530Z,7.88
2022-09-24T17:11:42.449Z,10.85
2022-09-24T17:14:12.183Z,14.30
2022-09-24T17:16:39.712Z,12.35
2022-09-24T17:19:07.888Z,11.07
2022-09-24T17:21:35.959Z,11.80
2022-09-24T17:24:02.667Z,10.27
2022-09-24T17:26:29.030Z,13.80
2022-09-24T17:28:55.429Z,21.23
2022-09-24T17:31:24.201Z,31.00
2022-09-24T17:33:57.953Z,21.40
2022-09-24T17:36:26.265Z,12.05
2022-09-24T17:38:52.834Z,10.63
2022-09-24T17:41:19.564Z,11.63
2022-09-24T17:43:45.966Z,10.00
2022-09-24T17:46:15.238Z,9.18
2022-09-24T17:48:45.662Z,12.25
2022-09-24T17:51:15.460Z,11.40
2022-09-24T17:53:41.921Z,10.68
2022-09-24T17:56:11.408Z,13.52
2022-09-24T17:58:39.600Z,12.95
2022-09-24T18:01:11.981Z,14.88
2022-09-24T18:03:39.392Z,21.75
2022-09-24T18:06:08.397Z,14.40
2022-09-24T18:08:39.107Z,14.52
2022-09-24T18:11:14.953Z,20.55
2022-09-24T18:13:41.697Z,15.75
2022-09-24T18:16:10.994Z,11.63
2022-09-24T18:18:37.748Z,21.85
2022-09-24T18:21:06.793Z,10.57
2022-09-24T18:23:35.056Z,8.57
2022-09-24T18:26:10.829Z,11.57
2022-09-24T18:28:41.523Z,8.82
2022-09-24T18:31:10.186Z,8.98
2022-09-24T18:33:38.922Z,14.60
2022-09-24T18:36:08.329Z,10.63
2022-09-24T18:38:35.475Z,9.57
2022-09-24T18:41:08.421Z,12.23
2022-09-24T18:43:35.250Z,16.00
2022-09-24T18:46:10.780Z,13.15
2022-09-24T18:48:38.194Z,11.98
2022-09-24T18:51:05.404Z,7.82
2022-09-24T18:53:32.178Z,12.50
2022-09-24T18:56:03.202Z,14.65
2022-09-24T18:58:29.560Z,10.48
2022-09-24T19:01:03.701Z,9.35
2022-09-24T19:03:30.879Z,10.43
2022-09-24T19:06:02.740Z,12.48
2022-09-24T19:08:32.084Z,10.90
2022-09-24T19:11:09.248Z,10.15
2022-09-24T19:13:39.954Z,9.07
2022-09-24T19:16:10.854Z,10.75
2022-09-24T19:18:38.272Z,13.25
2022-09-24T19:21:06.546Z,13.48
2022-09-24T19:23:40.674Z,15.10
2022-09-24T19:26:08.462Z,22.15
2022-09-24T19:28:36.014Z,21.27
2022-09-24T19:31:03.859Z,15.02
2022-09-24T19:33:31.279Z,10.27
2022-09-24T19:36:01.691Z,9.73
2022-09-24T19:38:30.413Z,9.60
2022-09-24T19:41:01.754Z,9.23
2022-09-24T19:43:29.763Z,10.80
2022-09-24T19:46:00.803Z,7.03
2022-09-24T19:48:29.077Z,8.50
2022-09-24T19:51:00.890Z,10.98
2022-09-24T19:53:27.868Z,7.57
2022-09-24T19:55:54.269Z,6.57
2022-09-24T19:58:20.634Z,9.38
2022-09-24T20:00:47.059Z,7.20
2022-09-24T20:03:13.658Z,9.10
2022-09-24T20:05:43.201Z,8.27
2022-09-24T20:08:14.689Z,9.75
2022-09-24T20:10:41.842Z,17.05
2022-09-24T20:13:10.616Z,7.47
2022-09-24T20:15:38.272Z,7.95
2022-09-24T20:18:06.529Z,10.60
2022-09-24T20:20:33.236Z,12.13
2022-09-24T20:22:59.934Z,15.60
2022-09-24T20:25:45.070Z,11.02
2022-09-24T20:28:15.359Z,10.00
2022-09-24T20:30:44.892Z,11.80
2022-09-24T20:33:12.849Z,12.00
2022-09-24T20:35:41.034Z,10.57
2022-09-24T20:38:08.309Z,8.90
2022-09-24T20:40:36.480Z,9.95
2022-09-24T20:43:03.792Z,11.30
2022-09-24T20:45:31.417Z,9.40
2022-09-24T20:47:57.834Z,11.20
2022-09-24T20:50:24.207Z,12.07
2022-09-24T20:52:51.112Z,16.38
2022-09-24T20:55:17.471Z,12.90
2022-09-24T20:57:43.824Z,12.43
2022-09-24T21:00:13.327Z,10.77
2022-09-24T21:02:41.567Z,14.40
2022-09-24T21:05:10.370Z,12.57
2022-09-24T21:07:42.570Z,10.57
2022-09-24T21:10:11.554Z,12.00
2022-09-24T21:12:39.371Z,8.77
2022-09-24T21:15:07.606Z,10.32
2022-09-24T21:17:34.488Z,12.02
2022-09-24T21:20:01.232Z,26.15
2022-09-24T21:22:27.992Z,11.90
2022-09-24T21:24:54.490Z,11.50
2022-09-24T21:27:20.880Z,11.63
2022-09-24T21:29:48.212Z,9.35
2022-09-24T21:32:16.662Z,18.70
2022-09-24T21:34:44.027Z,10.80
2022-09-24T21:37:14.858Z,8.80
2022-09-24T21:39:43.045Z,12.15
2022-09-24T21:42:09.734Z,13.65
2022-09-24T21:44:36.264Z,18.35
2022-09-24T21:47:03.321Z,10.45
2022-09-24T21:49:30.664Z,14.48
2022-09-24T21:51:57.627Z,17.17
2022-09-24T21:54:24.050Z,15.05
2022-09-24T21:56:54.222Z,12.50
2022-09-24T21:59:39.004Z,12.15
2022-09-24T22:02:05.435Z,13.43
2022-09-24T22:04:33.263Z,13.38
2022-09-24T22:07:00.230Z,14.25
2022-09-24T22:09:26.837Z,16.65
2022-09-24T22:11:55.862Z,16.50
2022-09-24T22:14:23.154Z,15.32
2022-09-24T22:16:49.728Z,13.52
2022-09-24T22:19:16.337Z,15.07
2022-09-24T22:21:42.987Z,18.35
2022-09-24T22:24:09.935Z,14.05
2022-09-24T22:26:36.579Z,9.88
2022-09-24T22:29:06.329Z,17.17
2022-09-24T22:31:33.236Z,10.70
2022-09-24T22:34:18.821Z,12.30
2022-09-24T22:36:45.189Z,13.88
2022-09-24T22:39:11.542Z,12.57
2022-09-24T22:41:39.950Z,15.82
2022-09-24T22:44:07.184Z,14.07
2022-09-24T22:46:36.078Z,11.27
2022-09-24T22:49:04.288Z,13.93
2022-09-24T22:51:31.330Z,13.27
2022-09-24T22:53:59.674Z,15.02
2022-09-24T22:56:27.182Z,15.70
2022-09-24T22:59:03.073Z,9.98
2022-09-24T23:01:33.385Z,13.63
2022-09-24T23:04:01.457Z,12.73
2022-09-24T23:06:28.183Z,11.60
2022-09-24T23:08:55.401Z,12.57
2022-09-24T23:11:31.554Z,12.98
2022-09-24T23:14:04.587Z,9.68
2022-09-24T23:16:34.344Z,10.73
2022-09-24T23:19:02.596Z,13.60
2022-09-24T23:21:31.413Z,13.05
2022-09-24T23:24:05.050Z,7.80
2022-09-24T23:26:31.514Z,19.02
2022-09-24T23:28:59.374Z,13.73
2022-09-24T23:31:29.501Z,9.15
2022-09-24T23:33:57.440Z,9.70
2022-09-24T23:36:25.372Z,9.52
2022-09-24T23:38:52.913Z,14.40
2022-09-24T23:41:19.812Z,9.18
2022-09-24T23:43:46.196Z,16.00
2022-09-24T23:46:13.608Z,10.23
2022-09-24T23:48:40.269Z,11.77
2022-09-24T23:51:07.407Z,12.30
2022-09-24T23:53:34.381Z,11.95
2022-09-24T23:56:01.708Z,11.40
2022-09-24T23:58:28.332Z,11.55
